createdAt,value
2023-03-10T00:01:36.332Z,15.00
2023-03-10T00:03:37.805Z,14.50
2023-03-10T00:05:39.788Z,15.40
2023-03-10T00:07:41.324Z,14.00
2023-03-10T00:09:42.962Z,13.07
2023-03-10T00:11:44.619Z,14.88
2023-03-10T00:13:46.183Z,16.10
2023-03-10T00:15:48.648Z,14.00
2023-03-10T00:17:50.301Z,13.10
2023-03-10T00:19:51.777Z,14.55
2023-03-10T00:21:53.682Z,12.93
2023-03-10T00:23:56.063Z,15.88
2023-03-10T00:25:59.740Z,13.73
2023-03-10T00:28:01.236Z,12.73
2023-03-10T00:30:04.059Z,12.60
2023-03-10T00:32:05.960Z,13.38
2023-03-10T00:34:07.453Z,12.15
2023-03-10T00:36:13.485Z,10.88
2023-03-10T00:38:14.998Z,12.57
2023-03-10T00:40:16.740Z,11.77
2023-03-10T00:42:18.794Z,11.07
2023-03-10T00:44:20.275Z,14.10
2023-03-10T00:46:23.107Z,13.15
2023-03-10T00:48:24.687Z,10.68
2023-03-10T00:50:26.155Z,14.45
2023-03-10T00:52:32.810Z,12.30
2023-03-10T00:54:34.324Z,10.68
2023-03-10T00:56:35.821Z,11.15
2023-03-10T00:58:37.541Z,12.60
2023-03-10T01:00:39.046Z,12.55
2023-03-10T01:02:40.556Z,10.95
2023-03-10T01:04:42.102Z,13.30
2023-03-10T01:06:44.593Z,12.48
2023-03-10T01:08:46.216Z,10.70
2023-03-10T01:10:48.217Z,11.55
2023-03-10T01:12:49.700Z,11.65
2023-03-10T01:14:51.189Z,12.30
2023-03-10T01:16:52.914Z,10.57
2023-03-10T01:18:54.866Z,13.43
2023-03-10T01:20:56.317Z,11.60
2023-03-10T01:22:58.686Z,11.77
2023-03-10T01:25:00.151Z,11.68
2023-03-10T01:27:01.642Z,12.43
2023-03-10T01:29:03.279Z,14.00
2023-03-10T01:31:07.678Z,11.60
2023-03-10T01:33:10.202Z,13.13
2023-03-10T01:35:12.041Z,12.13
2023-03-10T01:37:13.518Z,12.45
2023-03-10T01:39:14.988Z,12.57
2023-03-10T01:41:17.127Z,12.73
2023-03-10T01:43:22.110Z,14.52
2023-03-10T01:45:23.506Z,10.18
2023-03-10T01:47:24.947Z,13.85
2023-03-10T01:49:33.656Z,11.15
2023-03-10T01:51:37.288Z,9.93
2023-03-10T01:53:39.474Z,12.05
2023-03-10T01:55:48.316Z,11.02
2023-03-10T01:59:55.375Z,10.95
2023-03-10T02:01:58.464Z,11.27
2023-03-10T02:04:09.223Z,12.32
2023-03-10T02:06:12.502Z,10.77
2023-03-10T02:08:14.816Z,11.85
2023-03-10T02:10:17.147Z,10.68
2023-03-10T02:12:20.373Z,11.35
2023-03-10T02:14:21.894Z,10.45
2023-03-10T02:16:24.186Z,12.57
2023-03-10T02:18:26.185Z,10.48
2023-03-10T02:20:30.696Z,9.00
2023-03-10T02:22:32.929Z,10.93
2023-03-10T02:24:38.803Z,9.50
2023-03-10T02:26:50.223Z,11.23
2023-03-10T02:28:54.430Z,11.20
2023-03-10T02:30:57.250Z,12.10
2023-03-10T02:33:04.579Z,10.80
2023-03-10T02:35:06.605Z,11.60
2023-03-10T02:37:17.100Z,10.98
2023-03-10T02:39:18.577Z,10.30
2023-03-10T02:41:25.002Z,9.52
2023-03-10T02:43:30.085Z,9.27
2023-03-10T02:45:34.924Z,10.32
2023-03-10T02:47:36.437Z,11.95
2023-03-10T02:49:39.648Z,9.57
2023-03-10T02:51:44.228Z,9.43
2023-03-10T02:53:45.702Z,8.98
2023-03-10T02:55:47.642Z,9.25
2023-03-10T02:57:49.127Z,7.28
2023-03-10T02:59:50.621Z,8.65
2023-03-10T03:01:52.086Z,9.55
2023-03-10T03:03:54.120Z,7.97
2023-03-10T03:05:55.688Z,8.57
2023-03-10T03:07:57.161Z,10.80
2023-03-10T03:09:58.658Z,9.15
2023-03-10T03:12:01.307Z,6.30
2023-03-10T03:14:02.858Z,7.85
2023-03-10T03:16:07.331Z,9.77
2023-03-10T03:18:09.704Z,7.55
2023-03-10T03:20:14.090Z,11.50
2023-03-10T03:22:15.588Z,8.73
2023-03-10T03:24:18.766Z,8.30
2023-03-10T03:26:23.271Z,9.05
2023-03-10T03:28:24.759Z,8.73
2023-03-10T03:30:28.052Z,10.48
2023-03-10T03:32:29.560Z,7.70
2023-03-10T03:34:31.058Z,9.65
2023-03-10T03:36:32.768Z,9.10
2023-03-10T03:38:34.880Z,8.82
2023-03-10T03:40:37.579Z,9.40
2023-03-10T03:42:40.400Z,8.48
2023-03-10T03:44:41.938Z,7.93
2023-03-10T03:46:43.401Z,7.45
2023-03-10T03:48:44.845Z,8.85
2023-03-10T03:50:48.073Z,9.07
2023-03-10T03:52:50.149Z,7.57
2023-03-10T03:54:51.765Z,8.85
2023-03-10T03:56:53.274Z,9.02
2023-03-10T03:58:55.074Z,8.88
2023-03-10T04:00:56.646Z,8.30
2023-03-10T04:02:58.114Z,8.10
2023-03-10T04:04:59.578Z,7.90
2023-03-10T04:07:01.652Z,8.55
2023-03-10T04:09:03.774Z,7.25
2023-03-10T04:11:05.382Z,7.35
2023-03-10T04:13:06.882Z,9.23
2023-03-10T04:15:09.126Z,7.35
2023-03-10T04:17:12.248Z,9.45
2023-03-10T04:19:14.287Z,7.43
2023-03-10T04:21:17.491Z,6.78
2023-03-10T04:23:18.977Z,7.20
2023-03-10T04:25:20.442Z,6.78
2023-03-10T04:27:21.895Z,7.28
2023-03-10T04:29:24.527Z,7.03
2023-03-10T04:31:26.469Z,7.72
2023-03-10T04:33:28.068Z,8.30
2023-03-10T04:35:29.596Z,7.43
2023-03-10T04:37:31.053Z,7.90
2023-03-10T04:39:32.528Z,6.45
2023-03-10T04:41:34.010Z,7.70
2023-03-10T04:43:36.297Z,6.47
2023-03-10T04:45:37.788Z,8.63
2023-03-10T04:47:39.803Z,8.52
2023-03-10T04:49:41.440Z,8.68
2023-03-10T04:51:42.947Z,6.65
2023-03-10T04:53:44.416Z,6.75
2023-03-10T04:55:45.889Z,7.45
2023-03-10T04:57:47.411Z,7.13
2023-03-10T04:59:48.889Z,7.53
2023-03-10T05:01:52.381Z,8.38
2023-03-10T05:03:54.062Z,8.25
2023-03-10T05:05:55.728Z,9.13
2023-03-10T05:07:57.189Z,8.00
2023-03-10T05:09:58.665Z,9.30
2023-03-10T05:12:00.117Z,8.20
2023-03-10T05:14:01.725Z,8.35
2023-03-10T05:16:03.576Z,8.43
2023-03-10T05:18:05.526Z,7.78
2023-03-10T05:20:09.551Z,7.47
2023-03-10T05:22:12.391Z,7.75
2023-03-10T05:24:13.954Z,8.57
2023-03-10T05:26:15.799Z,8.88
2023-03-10T05:28:17.399Z,6.78
2023-03-10T05:30:18.986Z,7.70
2023-03-10T05:32:20.631Z,8.27
2023-03-10T05:34:23.812Z,8.15
2023-03-10T05:36:25.405Z,9.25
2023-03-10T05:38:26.853Z,8.23
2023-03-10T05:40:28.309Z,7.32
2023-03-10T05:42:29.905Z,8.40
2023-03-10T05:44:31.735Z,10.38
2023-03-10T05:46:33.304Z,8.80
2023-03-10T05:48:35.217Z,9.60
2023-03-10T05:50:36.755Z,10.77
2023-03-10T05:52:39.966Z,8.70
2023-03-10T05:54:41.431Z,9.75
2023-03-10T05:56:42.970Z,8.23
2023-03-10T05:58:45.513Z,9.65
2023-03-10T06:00:47.211Z,12.98
2023-03-10T06:02:48.735Z,10.20
2023-03-10T06:04:50.226Z,9.98
2023-03-10T06:06:51.701Z,11.43
2023-03-10T06:08:53.157Z,11.85
2023-03-10T06:10:55.633Z,10.75
2023-03-10T06:12:57.265Z,9.48
2023-03-10T06:15:11.090Z,9.75
2023-03-10T06:17:12.575Z,10.27
2023-03-10T06:19:14.051Z,13.23
2023-03-10T06:21:15.604Z,10.70
2023-03-10T06:23:18.092Z,12.88
2023-03-10T06:25:20.709Z,13.52
2023-03-10T06:27:22.216Z,13.93
2023-03-10T06:29:23.764Z,12.27
2023-03-10T06:31:25.571Z,12.68
2023-03-10T06:33:28.323Z,14.27
2023-03-10T06:35:31.587Z,13.77
2023-03-10T06:37:33.169Z,13.30
2023-03-10T06:39:38.058Z,13.32
2023-03-10T06:41:39.555Z,16.15
2023-03-10T06:43:41.117Z,13.65
2023-03-10T06:45:44.521Z,14.50
2023-03-10T06:47:46.070Z,16.27
2023-03-10T06:49:47.535Z,15.73
2023-03-10T06:51:48.973Z,14.70
2023-03-10T06:53:50.766Z,17.00
2023-03-10T06:56:06.589Z,14.82
2023-03-10T06:58:08.142Z,17.20
2023-03-10T07:00:11.969Z,14.70
2023-03-10T07:02:13.480Z,17.63
2023-03-10T07:04:14.950Z,14.82
2023-03-10T07:06:16.446Z,15.68
2023-03-10T07:08:17.998Z,16.88
2023-03-10T07:10:19.693Z,15.40
2023-03-10T07:12:21.187Z,16.52
2023-03-10T07:14:22.682Z,16.20
2023-03-10T07:16:24.582Z,14.68
2023-03-10T07:18:29.682Z,16.88
2023-03-10T07:20:31.183Z,13.18
2023-03-10T07:22:32.642Z,21.48
2023-03-10T07:24:34.094Z,15.63
2023-03-10T07:26:35.586Z,15.73
2023-03-10T07:28:37.965Z,17.00
2023-03-10T07:30:39.923Z,15.93
2023-03-10T07:32:41.855Z,16.25
2023-03-10T07:34:43.373Z,14.88
2023-03-10T07:36:44.808Z,15.88
2023-03-10T07:38:46.888Z,11.55
2023-03-10T07:40:48.347Z,14.88
2023-03-10T07:42:49.846Z,18.30
2023-03-10T07:44:51.378Z,16.23
2023-03-10T07:46:52.968Z,16.85
2023-03-10T07:48:55.620Z,16.83
2023-03-10T07:50:58.672Z,15.10
2023-03-10T07:53:00.215Z,18.52
2023-03-10T07:55:01.679Z,16.70
2023-03-10T07:57:03.242Z,20.13
2023-03-10T07:59:04.814Z,17.30
2023-03-10T08:01:07.820Z,17.05
2023-03-10T08:03:09.333Z,15.38
2023-03-10T08:05:11.461Z,22.38
2023-03-10T08:07:13.048Z,18.27
2023-03-10T08:09:14.510Z,17.95
2023-03-10T08:11:16.716Z,19.65
2023-03-10T08:13:18.262Z,22.08
2023-03-10T08:15:19.727Z,24.83
2023-03-10T08:17:21.248Z,16.35
2023-03-10T08:19:27.044Z,16.63
2023-03-10T08:21:28.506Z,16.65
2023-03-10T08:23:30.036Z,19.95
2023-03-10T08:25:31.534Z,18.52
2023-03-10T08:27:33.022Z,18.05
2023-03-10T08:29:34.531Z,17.58
2023-03-10T08:31:36.441Z,18.27
2023-03-10T08:33:39.930Z,18.08
2023-03-10T08:35:41.599Z,18.80
2023-03-10T08:37:43.609Z,18.90
2023-03-10T08:39:46.463Z,19.08
2023-03-10T08:41:49.037Z,17.88
2023-03-10T08:43:53.407Z,20.17
2023-03-10T08:45:54.881Z,20.63
2023-03-10T08:47:56.331Z,18.92
2023-03-10T08:49:57.822Z,21.67
2023-03-10T08:52:00.337Z,19.40
2023-03-10T08:54:02.406Z,21.50
2023-03-10T08:56:05.249Z,17.52
2023-03-10T08:58:06.735Z,18.52
2023-03-10T09:00:12.424Z,18.15
2023-03-10T09:02:15.296Z,16.58
2023-03-10T09:04:16.855Z,17.88
2023-03-10T09:06:19.147Z,18.70
2023-03-10T09:08:20.923Z,18.63
2023-03-10T09:10:22.397Z,19.15
2023-03-10T09:12:23.853Z,16.85
2023-03-10T09:14:25.849Z,16.58
2023-03-10T09:16:28.917Z,19.02
2023-03-10T09:18:30.454Z,17.63
2023-03-10T09:20:31.919Z,17.85
2023-03-10T09:22:33.370Z,16.48
2023-03-10T09:24:34.873Z,18.80
2023-03-10T09:26:36.400Z,16.98
2023-03-10T09:28:38.031Z,16.75
2023-03-10T09:30:41.385Z,21.50
2023-03-10T09:32:44.792Z,18.10
2023-03-10T09:34:46.347Z,21.48
2023-03-10T09:36:47.894Z,18.27
2023-03-10T09:38:49.408Z,18.13
2023-03-10T09:41:03.381Z,16.52
2023-03-10T09:43:07.109Z,16.80
2023-03-10T09:45:41.303Z,21.40
2023-03-10T09:47:55.284Z,16.88
2023-03-10T09:50:24.806Z,16.73
2023-03-10T09:52:46.112Z,18.75
2023-03-10T09:55:47.854Z,16.48
2023-03-10T09:57:52.861Z,19.05
2023-03-10T09:59:59.185Z,15.32
2023-03-10T10:02:03.953Z,17.13
2023-03-10T10:04:11.655Z,18.13
2023-03-10T10:06:42.317Z,16.60
2023-03-10T10:09:01.830Z,17.77
2023-03-10T10:11:09.670Z,18.17
2023-03-10T10:13:16.506Z,17.20
2023-03-10T10:15:22.346Z,16.48
2023-03-10T10:17:29.540Z,16.25
2023-03-10T10:19:33.108Z,15.95
2023-03-10T10:21:56.441Z,14.40
2023-03-10T10:23:59.356Z,14.07
2023-03-10T10:26:09.746Z,14.32
2023-03-10T10:28:20.215Z,12.93
2023-03-10T10:30:33.145Z,14.45
2023-03-10T10:32:34.712Z,16.00
2023-03-10T10:34:38.494Z,16.48
2023-03-10T10:36:52.028Z,13.63
2023-03-10T10:38:55.561Z,15.57
2023-03-10T10:41:07.709Z,18.13
2023-03-10T10:43:16.921Z,13.07
2023-03-10T10:47:51.057Z,12.95
2023-03-10T10:49:53.705Z,14.00
2023-03-10T10:52:01.760Z,12.90
2023-03-10T10:54:19.432Z,15.10
2023-03-10T10:56:21.832Z,16.73
2023-03-10T10:58:38.735Z,15.02
2023-03-10T11:00:40.369Z,14.30
2023-03-10T11:02:41.886Z,16.27
2023-03-10T11:04:46.322Z,13.82
2023-03-10T11:06:48.508Z,13.40
2023-03-10T11:08:53.513Z,11.35
2023-03-10T11:11:02.009Z,14.20
2023-03-10T11:13:17.784Z,13.60
2023-03-10T11:15:26.330Z,12.48
2023-03-10T11:17:42.936Z,13.85
2023-03-10T11:19:59.685Z,13.25
2023-03-10T11:22:14.210Z,11.60
2023-03-10T11:24:36.344Z,14.27
2023-03-10T11:27:01.945Z,12.30
2023-03-10T11:29:13.436Z,14.43
2023-03-10T11:31:28.873Z,13.82
2023-03-10T11:33:50.405Z,12.25
2023-03-10T11:36:15.704Z,10.75
2023-03-10T11:38:39.014Z,11.75
2023-03-10T11:40:51.542Z,15.07
2023-03-10T11:43:00.694Z,12.52
2023-03-10T11:45:02.235Z,13.02
2023-03-10T11:47:21.423Z,14.23
2023-03-10T11:49:27.263Z,13.73
2023-03-10T11:51:47.983Z,12.40
2023-03-10T11:53:53.104Z,13.50
2023-03-10T11:55:55.899Z,15.43
2023-03-10T11:58:01.178Z,17.38
2023-03-10T12:00:07.802Z,14.25
2023-03-10T12:02:26.872Z,12.70
2023-03-10T12:04:36.438Z,13.00
2023-03-10T12:06:52.551Z,14.23
2023-03-10T12:08:55.911Z,13.55
2023-03-10T12:11:01.307Z,14.23
2023-03-10T12:13:04.362Z,15.75
2023-03-10T12:15:16.204Z,14.40
2023-03-10T12:17:17.854Z,16.25
2023-03-10T12:19:19.668Z,16.23
2023-03-10T12:21:28.118Z,14.05
2023-03-10T12:23:36.642Z,16.70
2023-03-10T12:25:38.425Z,13.95
2023-03-10T12:28:13.462Z,17.27
2023-03-10T12:30:46.390Z,13.10
2023-03-10T12:32:48.218Z,12.43
2023-03-10T12:35:22.453Z,16.40
2023-03-10T12:37:24.009Z,13.20
2023-03-10T12:39:28.256Z,15.20
2023-03-10T12:41:29.656Z,12.63
2023-03-10T12:43:43.028Z,13.85
2023-03-10T12:45:45.835Z,13.30
2023-03-10T12:48:03.187Z,13.40
2023-03-10T12:50:44.364Z,14.55
2023-03-10T12:52:59.360Z,14.35
2023-03-10T12:55:24.728Z,13.52
2023-03-10T12:57:47.124Z,12.10
2023-03-10T13:00:00.926Z,14.68
2023-03-10T13:02:04.618Z,13.60
2023-03-10T13:04:08.084Z,13.43
2023-03-10T13:06:18.703Z,15.82
2023-03-10T13:08:24.966Z,15.25
2023-03-10T13:10:30.928Z,15.10
2023-03-10T13:12:48.881Z,14.40
2023-03-10T13:14:59.037Z,15.73
2023-03-10T13:17:01.626Z,16.52
2023-03-10T13:19:04.292Z,15.35
2023-03-10T13:21:06.010Z,13.60
2023-03-10T13:23:20.697Z,18.92
2023-03-10T13:25:22.410Z,15.27
2023-03-10T13:27:28.870Z,17.88
2023-03-10T13:29:30.570Z,19.58
2023-03-10T13:31:33.552Z,17.45
2023-03-10T13:33:43.009Z,17.45
2023-03-10T13:35:48.406Z,18.58
2023-03-10T13:38:13.720Z,19.02
2023-03-10T13:40:17.112Z,14.05
2023-03-10T13:42:40.746Z,15.30
2023-03-10T13:44:44.808Z,17.80
2023-03-10T13:47:16.813Z,16.40
2023-03-10T13:49:20.263Z,19.58
2023-03-10T13:51:32.076Z,16.42
2023-03-10T13:53:34.026Z,18.23
2023-03-10T13:55:41.445Z,18.38
2023-03-10T13:57:44.773Z,18.08
2023-03-10T13:59:47.823Z,18.83
2023-03-10T14:01:53.670Z,21.40
2023-03-10T14:03:56.777Z,20.33
2023-03-10T14:05:58.280Z,18.65
2023-03-10T14:08:00.870Z,18.98
2023-03-10T14:10:05.192Z,17.95
2023-03-10T14:12:08.433Z,20.63
2023-03-10T14:14:11.677Z,20.92
2023-03-10T14:16:13.671Z,21.13
2023-03-10T14:18:17.207Z,17.60
2023-03-10T14:20:27.840Z,17.65
2023-03-10T14:22:37.810Z,20.58
2023-03-10T14:24:39.306Z,18.65
2023-03-10T14:26:41.515Z,20.25
2023-03-10T14:28:43.050Z,22.00
2023-03-10T14:30:44.647Z,24.67
2023-03-10T14:32:46.724Z,21.75
2023-03-10T14:34:48.816Z,21.90
2023-03-10T14:36:50.278Z,22.10
2023-03-10T14:38:51.789Z,23.77
2023-03-10T14:40:54.990Z,22.52
2023-03-10T14:43:00.339Z,24.40
2023-03-10T14:45:08.285Z,21.08
2023-03-10T14:47:09.901Z,23.33
2023-03-10T14:49:15.222Z,26.05
2023-03-10T14:51:32.686Z,22.38
2023-03-10T14:53:36.353Z,25.45
2023-03-10T14:55:39.055Z,27.10
2023-03-10T14:57:41.233Z,26.83
2023-03-10T14:59:42.727Z,25.00
2023-03-10T15:01:44.565Z,27.38
2023-03-10T15:03:48.964Z,29.90
2023-03-10T15:05:50.481Z,27.10
2023-03-10T15:07:52.062Z,27.65
2023-03-10T15:10:08.847Z,24.83
2023-03-10T15:12:17.834Z,26.67
2023-03-10T15:14:19.580Z,30.92
2023-03-10T15:16:21.074Z,28.42
2023-03-10T15:18:23.765Z,27.70
2023-03-10T15:20:25.307Z,29.85
2023-03-10T15:22:26.792Z,28.13
2023-03-10T15:24:28.241Z,29.70
2023-03-10T15:26:29.684Z,28.88
2023-03-10T15:28:31.245Z,31.58
2023-03-10T15:30:35.766Z,30.00
2023-03-10T15:32:37.270Z,36.35
2023-03-10T15:34:38.728Z,31.92
2023-03-10T15:36:40.398Z,34.03
2023-03-10T15:38:41.903Z,30.30
2023-03-10T15:40:43.705Z,31.92
2023-03-10T15:42:46.169Z,31.42
2023-03-10T15:44:48.562Z,28.42
2023-03-10T15:46:55.010Z,30.35
2023-03-10T15:48:56.725Z,36.30
2023-03-10T15:50:58.365Z,32.80
2023-03-10T15:53:00.563Z,37.05
2023-03-10T15:55:02.338Z,32.08
2023-03-10T15:57:03.941Z,27.92
2023-03-10T15:59:07.480Z,29.33
2023-03-10T16:01:12.027Z,20.17
2023-03-10T16:03:17.748Z,27.75
2023-03-10T16:05:20.197Z,26.40
2023-03-10T16:07:21.646Z,25.23
2023-03-10T16:09:23.091Z,26.02
2023-03-10T16:11:24.648Z,25.13
2023-03-10T16:13:26.181Z,23.25
2023-03-10T16:15:27.712Z,24.80
2023-03-10T16:17:29.642Z,23.08
2023-03-10T16:19:31.146Z,24.95
2023-03-10T16:21:32.653Z,24.83
2023-03-10T16:23:34.371Z,21.17
2023-03-10T16:25:35.891Z,25.08
2023-03-10T16:27:37.404Z,25.30
2023-03-10T16:29:40.375Z,24.02
2023-03-10T16:31:43.031Z,24.88
2023-03-10T16:33:46.061Z,19.38
2023-03-10T16:35:47.574Z,18.95
2023-03-10T16:37:49.043Z,19.95
2023-03-10T16:39:54.508Z,16.05
2023-03-10T16:41:55.973Z,17.95
2023-03-10T16:43:57.550Z,19.55
2023-03-10T16:46:15.701Z,15.75
2023-03-10T16:48:18.888Z,15.52
2023-03-10T16:50:20.354Z,18.15
2023-03-10T16:52:21.812Z,17.52
2023-03-10T16:54:23.280Z,14.48
2023-03-10T16:56:26.233Z,14.82
2023-03-10T16:58:27.744Z,14.88
2023-03-10T17:00:29.340Z,13.20
2023-03-10T17:02:30.923Z,14.35
2023-03-10T17:04:33.129Z,14.43
2023-03-10T17:06:34.632Z,14.05
2023-03-10T17:08:37.200Z,14.10
2023-03-10T17:10:38.668Z,14.82
2023-03-10T17:12:40.142Z,13.18
2023-03-10T17:14:43.233Z,13.30
2023-03-10T17:16:45.465Z,13.15
2023-03-10T17:18:47.017Z,12.73
2023-03-10T17:20:48.617Z,15.30
2023-03-10T17:22:50.056Z,12.63
2023-03-10T17:24:56.626Z,14.25
2023-03-10T17:26:58.211Z,11.70
2023-03-10T17:28:59.962Z,13.82
2023-03-10T17:31:12.534Z,12.90
2023-03-10T17:33:14.092Z,12.95
2023-03-10T17:35:15.561Z,14.35
2023-03-10T17:37:17.049Z,14.60
2023-03-10T17:39:21.256Z,12.18
2023-03-10T17:41:23.803Z,14.25
2023-03-10T17:43:34.273Z,13.18
2023-03-10T17:45:36.043Z,14.45
2023-03-10T17:47:37.585Z,19.33
2023-03-10T17:49:40.506Z,15.13
2023-03-10T17:51:44.212Z,14.73
2023-03-10T17:53:46.184Z,16.27
2023-03-10T17:55:47.778Z,14.20
2023-03-10T17:57:49.216Z,26.48
2023-03-10T17:59:51.296Z,15.35
2023-03-10T18:01:52.974Z,14.95
2023-03-10T18:03:56.280Z,14.77
2023-03-10T18:05:57.842Z,15.35
2023-03-10T18:07:59.795Z,18.42
2023-03-10T18:10:01.334Z,15.40
2023-03-10T18:12:02.852Z,15.38
2023-03-10T18:14:05.715Z,20.00
2023-03-10T18:16:14.226Z,17.35
2023-03-10T18:18:15.710Z,15.68
2023-03-10T18:20:17.328Z,23.20
2023-03-10T18:22:18.880Z,15.90
2023-03-10T18:24:20.373Z,16.33
2023-03-10T18:26:25.088Z,18.55
2023-03-10T18:28:26.781Z,25.92
2023-03-10T18:30:28.271Z,17.42
2023-03-10T18:32:30.455Z,14.00
2023-03-10T18:34:31.937Z,14.93
2023-03-10T18:36:33.662Z,15.35
2023-03-10T18:38:35.189Z,11.63
2023-03-10T18:40:36.733Z,12.55
2023-03-10T18:42:38.170Z,10.65
2023-03-10T18:44:39.735Z,23.52
2023-03-10T18:46:41.216Z,11.88
2023-03-10T18:48:42.888Z,11.70
2023-03-10T18:50:44.364Z,20.38
2023-03-10T18:52:46.117Z,13.65
2023-03-10T18:54:48.323Z,17.27
2023-03-10T18:56:50.044Z,18.30
2023-03-10T18:58:51.529Z,14.30
2023-03-10T19:00:53.050Z,11.38
2023-03-10T19:02:54.630Z,11.35
2023-03-10T19:04:59.478Z,9.93
2023-03-10T19:07:01.002Z,13.13
2023-03-10T19:09:02.778Z,12.07
2023-03-10T19:11:05.144Z,15.23
2023-03-10T19:13:08.485Z,16.88
2023-03-10T19:15:13.018Z,21.05
2023-03-10T19:17:14.989Z,22.23
2023-03-10T19:19:16.924Z,19.65
2023-03-10T19:21:18.430Z,22.17
2023-03-10T19:23:19.886Z,15.25
2023-03-10T19:25:23.168Z,17.10
2023-03-10T19:27:24.698Z,14.25
2023-03-10T19:29:26.191Z,13.60
2023-03-10T19:31:27.926Z,13.32
2023-03-10T19:33:29.494Z,13.82
2023-03-10T19:35:31.186Z,13.85
2023-03-10T19:37:32.678Z,14.13
2023-03-10T19:39:34.137Z,14.40
2023-03-10T19:41:35.662Z,14.75
2023-03-10T19:43:37.517Z,15.07
2023-03-10T19:45:39.041Z,15.80
2023-03-10T19:47:41.688Z,15.40
2023-03-10T19:49:43.309Z,17.23
2023-03-10T19:51:44.876Z,15.60
2023-03-10T19:53:46.382Z,14.18
2023-03-10T19:56:00.105Z,11.00
2023-03-10T19:58:01.551Z,13.50
2023-03-10T20:00:05.926Z,15.85
2023-03-10T20:02:13.086Z,14.20
2023-03-10T20:04:15.454Z,12.50
2023-03-10T20:06:17.234Z,9.80
2023-03-10T20:08:19.054Z,12.27
2023-03-10T20:10:20.641Z,11.90
2023-03-10T20:12:22.411Z,10.85
2023-03-10T20:14:25.026Z,9.32
2023-03-10T20:16:27.890Z,6.63
2023-03-10T20:18:29.613Z,8.70
2023-03-10T20:20:31.678Z,7.88
2023-03-10T20:22:33.138Z,12.35
2023-03-10T20:24:35.170Z,8.25
2023-03-10T20:26:36.646Z,10.07
2023-03-10T20:28:39.713Z,8.35
2023-03-10T20:30:41.469Z,6.88
2023-03-10T20:32:43.750Z,10.00
2023-03-10T20:34:45.243Z,8.00
2023-03-10T20:36:46.839Z,9.52
2023-03-10T20:38:48.328Z,8.57
2023-03-10T20:40:49.877Z,11.40
2023-03-10T20:42:53.508Z,9.65
2023-03-10T20:44:55.022Z,8.75
2023-03-10T20:46:56.486Z,12.07
2023-03-10T20:48:58.011Z,9.55
2023-03-10T20:51:00.554Z,9.95
2023-03-10T20:53:02.417Z,12.95
2023-03-10T20:55:06.376Z,17.05
2023-03-10T20:57:08.596Z,14.82
2023-03-10T20:59:10.868Z,17.55
2023-03-10T21:01:18.597Z,16.48
2023-03-10T21:03:21.494Z,15.77
2023-03-10T21:05:27.451Z,14.43
2023-03-10T21:07:28.906Z,14.55
2023-03-10T21:09:30.349Z,15.07
2023-03-10T21:11:34.050Z,13.63
2023-03-10T21:13:35.576Z,13.25
2023-03-10T21:15:38.562Z,12.50
2023-03-10T21:17:40.136Z,15.23
2023-03-10T21:19:41.593Z,10.18
2023-03-10T21:21:43.277Z,10.55
2023-03-10T21:23:44.763Z,12.32
2023-03-10T21:25:46.267Z,11.85
2023-03-10T21:27:49.665Z,11.88
2023-03-10T21:29:51.407Z,12.20
2023-03-10T21:31:52.886Z,10.02
2023-03-10T21:33:54.381Z,10.40
2023-03-10T21:35:57.062Z,12.90
2023-03-10T21:37:59.367Z,10.85
2023-03-10T21:40:00.832Z,10.63
2023-03-10T21:42:02.318Z,11.45
2023-03-10T21:44:04.023Z,13.20
2023-03-10T21:46:06.463Z,12.00
2023-03-10T21:48:08.375Z,9.98
2023-03-10T21:50:11.608Z,10.10
2023-03-10T21:52:13.184Z,9.57
2023-03-10T21:54:14.975Z,13.13
2023-03-10T21:56:19.835Z,10.85
2023-03-10T21:58:23.461Z,9.43
2023-03-10T22:00:24.974Z,11.30
2023-03-10T22:02:30.563Z,9.35
2023-03-10T22:04:32.895Z,8.90
2023-03-10T22:06:34.617Z,12.05
2023-03-10T22:08:37.697Z,8.25
2023-03-10T22:10:39.270Z,9.73
2023-03-10T22:12:40.740Z,10.35
2023-03-10T22:14:42.390Z,8.95
2023-03-10T22:16:43.869Z,9.90
2023-03-10T22:18:46.024Z,8.45
2023-03-10T22:20:47.479Z,9.10
2023-03-10T22:22:49.669Z,9.70
2023-03-10T22:24:51.195Z,8.30
2023-03-10T22:26:52.701Z,9.88
2023-03-10T22:28:54.444Z,9.88
2023-03-10T22:30:56.081Z,9.35
2023-03-10T22:32:57.988Z,9.75
2023-03-10T22:34:59.646Z,8.77
2023-03-10T22:37:01.094Z,7.60
2023-03-10T22:39:02.607Z,8.05
2023-03-10T22:41:09.337Z,8.27
2023-03-10T22:43:10.828Z,7.00
2023-03-10T22:45:27.990Z,7.47
2023-03-10T22:47:29.437Z,6.47
2023-03-10T22:49:31.271Z,8.20
2023-03-10T22:51:33.099Z,9.02
2023-03-10T22:53:36.807Z,8.05
2023-03-10T22:55:39.361Z,8.68
2023-03-10T22:57:40.869Z,8.57
2023-03-10T22:59:42.395Z,6.88
2023-03-10T23:01:44.227Z,6.95
2023-03-10T23:03:45.771Z,8.15
2023-03-10T23:05:47.745Z,6.28
2023-03-10T23:07:49.554Z,5.43
2023-03-10T23:09:51.033Z,4.88
2023-03-10T23:11:52.483Z,5.03
2023-03-10T23:13:54.116Z,5.82
2023-03-10T23:15:55.628Z,3.85
2023-03-10T23:17:57.640Z,3.42
2023-03-10T23:19:59.621Z,4.13
2023-03-10T23:22:01.328Z,3.03
2023-03-10T23:24:03.062Z,2.88
2023-03-10T23:26:04.814Z,2.50
2023-03-10T23:28:08.424Z,2.97
2023-03-10T23:30:10.847Z,3.88
2023-03-10T23:32:12.380Z,3.22
2023-03-10T23:34:13.932Z,2.83
2023-03-10T23:36:15.579Z,5.03
2023-03-10T23:38:17.183Z,6.18
2023-03-10T23:40:20.794Z,3.58
2023-03-10T23:42:22.274Z,2.13
2023-03-10T23:44:23.793Z,2.17
2023-03-10T23:46:25.345Z,2.00
2023-03-10T23:48:26.936Z,6.78
2023-03-10T23:50:30.820Z,4.22
2023-03-10T23:52:32.785Z,4.18
2023-03-10T23:54:34.372Z,3.65
2023-03-10T23:56:35.819Z,5.63
2023-03-10T23:58:37.386Z,5.20
